• Join FlightAware (Why Join?)
  • Login
  • US Flag 
06:55PM EST


 

Airport Tracker/Info


-or-


 

Live Flight TrackerFlight Track Log ✈ N918DW ✈ 02-Apr-2014 ✈ KORL - KSAV

Flight Track Log - Related Links

Times and Time Zones

All times are in EDT time to prevent confusion due to time zone crossing. See the N918DW flight status page for this flight to view local times or setup timezone preferences in your user account.

Time Position Orientation Groundspeed Altitude Reporting Facility
EDT Latitude Longitude Course Direction KTS MPH feet Rate Location/Type
05:48PM 30.7711 -81.3669 North 166 191 7,500  Level Jacksonville Center
05:49PM 30.8169 -81.3661 North 166 191 7,500  Level Jacksonville Center
05:50PM 30.8628 -81.3583 North 161 185 7,500  Level Jacksonville Center
05:51PM 30.9108 -81.3550 North 161 185 7,500  Level Jacksonville Center
05:52PM 30.9567 -81.3494 North 161 185 7,500  Level Jacksonville Center
05:53PM 31.0025 -81.3414 North 161 185 7,500  Level Jacksonville Center
05:54PM 31.0503 -81.3358 North 161 185 7,500  Level Jacksonville Center
05:55PM 31.1047 -81.3300 North 161 185 7,500  Level Jacksonville Center
05:56PM 31.1506 -81.3219 North 161 185 7,500  Level Jacksonville Center
05:57PM 31.1922 -81.3189 North 161 185 7,500  Level Jacksonville Center
05:58PM 31.2400 -81.3131 North 161 185 7,500  Level Jacksonville Center
05:59PM 31.2922 -81.3075 North 161 185 7,500  Level Jacksonville Center
06:00PM 31.3381 -81.3019 North 161 185 7,500  Level Jacksonville Center
06:01PM 31.3861 -81.2961 North 161 185 7,500 -60 Level Jacksonville Center
06:02PM 31.4278 -81.2906 North 161 185 7,400 -300 Descending Jacksonville Center
06:03PM 31.4778 -81.2825 North 170 196 6,900 -600 Descending Jacksonville Center
06:04PM 31.5342 -81.2814 North 178 205 6,300 -540 Descending Jacksonville Center
06:05PM 31.5864 -81.2781 North 178 205 5,900 -480 Descending Jacksonville Center
06:06PM 31.6322 -81.2700 North 178 205 5,400 -540 Descending Jacksonville Center
06:07PM 31.6822 -81.2667 North 178 205 4,900 -480 Descending Jacksonville Center
06:08PM 31.7406 -81.2558 North 178 205 4,500 -360 Descending Jacksonville Center
06:09PM 31.7947 -81.2475 North 189 217 4,200 -300 Descending Jacksonville Center
06:11PM 31.8499 -81.2611 16° North  Level FlightAware Approximate
06:18PM 32.0645 -81.2104 10° North  Level FlightAware Approximate
06:19PM 32.0955 -81.2042 10° North  Level FlightAware Approximate
06:20PM 32.1264 -81.1980 10° North  Level FlightAware Approximate
06:21PM 32.1276 -81.2021 190° South  Level Estimated
06:22PM 32.1276 -81.2021 North  Level Estimated
06:23PM 32.1276 -81.2021 171° South  Level Estimated
06:24PM 32.1276 -81.2021 171° South  Level Estimated
06:25PM 32.1276 -81.2021 North  Level Estimated
06:26PM 32.1276 -81.2021 171° South  Level Estimated
06:27PM 32.1276 -81.2021 171° South  Level Estimated
06:28PM 32.1276 -81.2021 North  Level Estimated